East Springfield, Ohio
Current Conditions -  °F | °C
As of 6:53 PM on Friday 21 Nov 2014 (Local Time) from KHLG Reporting Station
Clear Clear  
Wind Chill: 25°   Ceiling: Unl
Heat Index: 25°   Visibility: 10mi
Dew Point:   Wind: 0mph
Humidity: 51%   Direction: NA
Pressure: 30.46"   Gusts: NA
Location:  40.45°N, 80.86°W
Report Text: KHLG 212353Z 00000KT 10SM CLR M04/M13 A3046 RMK AO2 SLP337 T10391128 11017 21039 58002
Loading
Personal Weather Stations






























Interactive Weather Map New forecast layout! Learn more

10-Day Weather Forecast

Advertisements
Track Severe Weather on mobile